Time;durP1;ratioP1;P1;durP2;ratioP2;P2;SDS_P1;SDS_P2;PMS_P1;PMS_P2;Temp;Humidity;BMP_temperature;BMP_pressure;BME280_temperature;BME280_humidity;BME280_pressure;Samples;Min_cycle;Max_cycle;Signal;HPM_P1;HPM_P2
2023/02/22 00:00:41;;;;;;;117.80;44.33;;;;;;;;;;5054757;28;20480;-66
2023/02/22 00:03:10;;;;;;;102.10;40.77;;;;;;;;;;5054765;28;20418;-66
2023/02/22 00:05:38;;;;;;;115.50;41.60;;;;;;;;;;5054409;28;20468;-66
2023/02/22 00:08:08;;;;;;;111.13;43.00;;;;;;;;;;5054604;28;20426;-66
2023/02/22 00:10:38;;;;;;;109.10;40.27;;;;;;;;;;5054308;28;20207;-66
2023/02/22 00:13:06;;;;;;;115.50;41.70;;;;;;;;;;5054169;28;20937;-66
2023/02/22 00:15:33;;;;;;;122.50;41.87;;;;;;;;;;5054529;28;20190;-66
2023/02/22 00:18:00;;;;;;;105.90;41.15;;;;;;;;;;5054089;28;20444;-66
2023/02/22 00:20:28;;;;;;;102.03;38.97;;;;;;;;;;5054009;28;20196;-66
2023/02/22 00:22:55;;;;;;;103.30;42.33;;;;;;;;;;5054451;28;20429;-66
2023/02/22 00:25:25;;;;;;;101.40;38.53;;;;;;;;;;5054338;28;20472;-66
2023/02/22 00:27:52;;;;;;;106.30;40.37;;;;;;;;;;5053878;28;20448;-66
2023/02/22 00:30:20;;;;;;;123.47;40.05;;;;;;;;;;5054196;28;20481;-66
2023/02/22 00:32:48;;;;;;;109.83;42.33;;;;;;;;;;5054490;28;20221;-66
2023/02/22 00:35:16;;;;;;;121.13;42.70;;;;;;;;;;5053875;28;20444;-67
2023/02/22 00:37:43;;;;;;;113.03;43.30;;;;;;;;;;5053994;28;20439;-66
2023/02/22 00:40:11;;;;;;;123.18;40.63;;;;;;;;;;5054108;28;20769;-66
2023/02/22 00:42:40;;;;;;;113.90;42.97;;;;;;;;;;5053967;28;20191;-66
2023/02/22 00:45:07;;;;;;;111.00;41.60;;;;;;;;;;5053674;28;20449;-66
2023/02/22 00:47:35;;;;;;;115.57;40.83;;;;;;;;;;5053842;28;20439;-67
2023/02/22 00:50:02;;;;;;;119.70;43.20;;;;;;;;;;5053835;28;20469;-66
2023/02/22 00:52:29;;;;;;;116.43;40.53;;;;;;;;;;5053790;28;20436;-67
2023/02/22 00:54:56;;;;;;;127.77;43.47;;;;;;;;;;5054248;28;20445;-66
2023/02/22 00:57:24;;;;;;;115.37;41.03;;;;;;;;;;5053347;28;20438;-67
2023/02/22 00:59:52;;;;;;;111.97;41.00;;;;;;;;;;5053885;28;20433;-66
2023/02/22 01:02:20;;;;;;;122.17;45.07;;;;;;;;;;5053728;28;20448;-66
2023/02/22 01:04:47;;;;;;;115.80;41.07;;;;;;;;;;5053552;28;20468;-66
2023/02/22 01:07:15;;;;;;;115.10;41.07;;;;;;;;;;5053645;28;20452;-66
2023/02/22 01:09:43;;;;;;;107.33;43.10;;;;;;;;;;5053134;28;20966;-66
2023/02/22 01:12:12;;;;;;;115.23;41.00;;;;;;;;;;5053307;28;20445;-66
2023/02/22 01:14:39;;;;;;;122.90;41.80;;;;;;;;;;5053185;28;20440;-66
2023/02/22 01:17:09;;;;;;;105.00;39.97;;;;;;;;;;5053492;28;20433;-66
2023/02/22 01:19:36;;;;;;;121.60;44.75;;;;;;;;;;5053114;28;20448;-66
2023/02/22 01:22:04;;;;;;;117.35;42.80;;;;;;;;;;5053172;28;20196;-66
2023/02/22 01:24:31;;;;;;;114.00;43.27;;;;;;;;;;5053314;28;20540;-66
2023/02/22 01:26:58;;;;;;;115.50;40.00;;;;;;;;;;5053443;28;20455;-67
2023/02/22 01:29:25;;;;;;;118.22;40.67;;;;;;;;;;5053207;28;20217;-67
2023/02/22 01:31:54;;;;;;;123.10;43.42;;;;;;;;;;5052531;28;20190;-67
2023/02/22 01:34:23;;;;;;;111.07;41.63;;;;;;;;;;5053440;28;20245;-66
2023/02/22 01:36:50;;;;;;;127.47;40.85;;;;;;;;;;5053309;28;20221;-66
2023/02/22 01:39:18;;;;;;;133.73;43.92;;;;;;;;;;5053311;28;20195;-66
2023/02/22 01:41:45;;;;;;;121.22;42.58;;;;;;;;;;5053602;28;20196;-67
2023/02/22 01:44:20;;;;;;;130.77;43.33;;;;;;;;;;5053180;28;20221;-66
2023/02/22 01:46:47;;;;;;;114.43;39.63;;;;;;;;;;5053037;28;20928;-66
2023/02/22 01:49:15;;;;;;;122.72;40.65;;;;;;;;;;5053018;28;20441;-66
2023/02/22 01:51:44;;;;;;;111.22;39.92;;;;;;;;;;5053634;28;20278;-66
2023/02/22 01:54:14;;;;;;;137.23;41.80;;;;;;;;;;5053098;28;20274;-66
2023/02/22 01:56:43;;;;;;;135.43;41.95;;;;;;;;;;5053139;28;20824;-66
2023/02/22 01:59:11;;;;;;;121.00;40.92;;;;;;;;;;5052973;28;20195;-66
2023/02/22 02:01:41;;;;;;;133.77;42.43;;;;;;;;;;5053152;28;20199;-66
2023/02/22 02:04:11;;;;;;;127.28;41.28;;;;;;;;;;5052869;28;20436;-66
2023/02/22 02:06:41;;;;;;;126.00;42.30;;;;;;;;;;5052834;28;20218;-66
2023/02/22 02:09:12;;;;;;;119.17;42.00;;;;;;;;;;5052561;28;20516;-66
2023/02/22 02:11:40;;;;;;;138.00;39.05;;;;;;;;;;5053320;28;20855;-66
2023/02/22 02:14:08;;;;;;;123.20;41.37;;;;;;;;;;5052859;28;20191;-66
2023/02/22 02:16:38;;;;;;;121.70;38.33;;;;;;;;;;5052628;28;20444;-66
2023/02/22 02:19:09;;;;;;;120.37;39.90;;;;;;;;;;5052520;28;20434;-66
2023/02/22 02:21:43;;;;;;;127.50;38.30;;;;;;;;;;5053004;28;20766;-66
2023/02/22 02:24:32;;;;;;;100.23;36.40;;;;;;;;;;5053166;28;20175;-67
2023/02/22 02:27:07;;;;;;;120.47;39.30;;;;;;;;;;5052733;28;20418;-66
2023/02/22 02:29:54;;;;;;;136.47;41.10;;;;;;;;;;5052451;28;20965;-66
2023/02/22 02:32:31;;;;;;;123.03;41.67;;;;;;;;;;5053655;28;20422;-66
2023/02/22 02:35:01;;;;;;;140.57;43.27;;;;;;;;;;5053232;28;20467;-66
2023/02/22 02:37:33;;;;;;;128.90;38.90;;;;;;;;;;5053103;28;20728;-66
2023/02/22 02:40:04;;;;;;;126.95;39.13;;;;;;;;;;5052796;28;20495;-66
2023/02/22 02:42:35;;;;;;;136.57;42.47;;;;;;;;;;5052870;28;20241;-66
2023/02/22 02:45:07;;;;;;;138.50;41.63;;;;;;;;;;5054358;28;20428;-66
2023/02/22 02:47:38;;;;;;;137.77;38.53;;;;;;;;;;5055947;28;20429;-66
2023/02/22 02:50:06;;;;;;;189.67;40.43;;;;;;;;;;5056278;28;20465;-67
2023/02/22 02:52:35;;;;;;;238.73;45.07;;;;;;;;;;5056138;28;20448;-67
2023/02/22 02:55:03;;;;;;;158.90;41.23;;;;;;;;;;5056007;28;20445;-66
2023/02/22 02:57:30;;;;;;;165.53;40.50;;;;;;;;;;5056319;28;20440;-65
2023/02/22 02:59:57;;;;;;;146.07;38.13;;;;;;;;;;5055963;28;20438;-67
2023/02/22 03:02:34;;;;;;;154.57;41.60;;;;;;;;;;5056014;28;20440;-66
2023/02/22 03:05:09;;;;;;;155.37;43.03;;;;;;;;;;5055900;28;20474;-66
2023/02/22 03:07:45;;;;;;;247.53;40.27;;;;;;;;;;5055655;28;20423;-66
2023/02/22 03:10:21;;;;;;;243.85;44.05;;;;;;;;;;5055422;28;20461;-66
2023/02/22 03:12:52;;;;;;;490.67;53.20;;;;;;;;;;5055477;28;20232;-66
2023/02/22 03:15:23;;;;;;;172.83;43.20;;;;;;;;;;5056071;28;20425;-66
2023/02/22 03:17:54;;;;;;;207.65;41.15;;;;;;;;;;5056392;28;20429;-67
2023/02/22 03:20:30;;;;;;;197.30;39.77;;;;;;;;;;5055969;28;20194;-67
2023/02/22 03:22:59;;;;;;;227.52;42.85;;;;;;;;;;5055304;28;20500;-67
2023/02/22 03:25:31;;;;;;;331.58;45.72;;;;;;;;;;5055771;28;20191;-67
2023/02/22 03:28:01;;;;;;;292.30;45.80;;;;;;;;;;5055689;28;20534;-66
2023/02/22 03:30:32;;;;;;;233.85;43.58;;;;;;;;;;5055072;28;20309;-67
2023/02/22 03:33:01;;;;;;;178.83;39.13;;;;;;;;;;5055812;28;20194;-66
2023/02/22 03:35:32;;;;;;;269.03;44.23;;;;;;;;;;5055594;28;20773;-66
2023/02/22 03:38:03;;;;;;;181.10;40.60;;;;;;;;;;5055641;28;20436;-66
2023/02/22 03:40:32;;;;;;;208.85;40.90;;;;;;;;;;5055348;28;20195;-66
2023/02/22 03:43:02;;;;;;;268.25;41.25;;;;;;;;;;5055460;28;20194;-66
2023/02/22 03:45:30;;;;;;;183.73;38.17;;;;;;;;;;5055054;28;20206;-66
2023/02/22 03:48:01;;;;;;;128.43;33.28;;;;;;;;;;5055948;28;20187;-66
2023/02/22 03:50:34;;;;;;;214.02;37.03;;;;;;;;;;5054831;28;20191;-66
2023/02/22 03:53:01;;;;;;;250.80;37.17;;;;;;;;;;5054789;28;20225;-66
2023/02/22 03:55:30;;;;;;;154.35;32.25;;;;;;;;;;5054136;28;20195;-66
2023/02/22 03:57:58;;;;;;;237.67;35.10;;;;;;;;;;5054955;28;20228;-67
2023/02/22 04:00:26;;;;;;;101.80;29.80;;;;;;;;;;5055011;28;20437;-66
2023/02/22 04:02:54;;;;;;;186.23;34.00;;;;;;;;;;5054369;28;20941;-67
2023/02/22 04:05:23;;;;;;;176.60;30.75;;;;;;;;;;5055077;28;20472;-67
2023/02/22 04:07:52;;;;;;;164.35;31.67;;;;;;;;;;5054449;28;20264;-66
2023/02/22 04:10:19;;;;;;;103.15;28.25;;;;;;;;;;5054544;28;20523;-66
2023/02/22 04:12:46;;;;;;;145.73;29.90;;;;;;;;;;5054326;28;20723;-66
2023/02/22 04:15:15;;;;;;;105.85;27.33;;;;;;;;;;5054461;28;20434;-66
2023/02/22 04:17:42;;;;;;;102.63;25.67;;;;;;;;;;5054229;28;20191;-66
2023/02/22 04:20:12;;;;;;;82.70;26.45;;;;;;;;;;5054559;28;20432;-67
2023/02/22 04:22:39;;;;;;;106.22;27.88;;;;;;;;;;5054109;28;20281;-68
2023/02/22 04:25:08;;;;;;;89.57;25.20;;;;;;;;;;5054013;28;20198;-66
2023/02/22 04:27:35;;;;;;;98.50;30.35;;;;;;;;;;5054319;28;20863;-66
2023/02/22 04:30:02;;;;;;;150.18;31.05;;;;;;;;;;5054493;28;20210;-66
2023/02/22 04:32:30;;;;;;;224.90;31.83;;;;;;;;;;5054190;28;20223;-66
2023/02/22 04:34:57;;;;;;;79.53;24.90;;;;;;;;;;5053915;28;20439;-66
2023/02/22 04:37:24;;;;;;;80.03;24.92;;;;;;;;;;5053726;28;20285;-66
2023/02/22 04:39:51;;;;;;;89.78;26.67;;;;;;;;;;5053826;28;20662;-65
2023/02/22 04:42:20;;;;;;;189.82;31.52;;;;;;;;;;5053740;28;20281;-66
2023/02/22 04:44:47;;;;;;;99.13;26.48;;;;;;;;;;5054213;28;20186;-66
2023/02/22 04:47:14;;;;;;;104.93;26.92;;;;;;;;;;5053936;28;20187;-66
2023/02/22 04:49:41;;;;;;;228.13;32.33;;;;;;;;;;5054139;28;20190;-66
2023/02/22 04:52:09;;;;;;;221.13;31.50;;;;;;;;;;5053780;28;20230;-66
2023/02/22 04:54:36;;;;;;;109.75;29.17;;;;;;;;;;5053864;28;20197;-66
2023/02/22 04:57:03;;;;;;;85.83;27.23;;;;;;;;;;5053906;28;20198;-66
2023/02/22 04:59:31;;;;;;;73.15;25.33;;;;;;;;;;5052275;28;20440;-67
2023/02/22 05:01:59;;;;;;;62.90;25.23;;;;;;;;;;5053116;28;20198;-66
2023/02/22 05:04:26;;;;;;;78.60;25.33;;;;;;;;;;5052610;28;20219;-66
2023/02/22 05:06:54;;;;;;;144.90;30.27;;;;;;;;;;5052247;28;20443;-69
2023/02/22 05:09:21;;;;;;;88.75;27.63;;;;;;;;;;5053113;28;20452;-67
2023/02/22 05:11:48;;;;;;;99.87;28.27;;;;;;;;;;5052921;28;20219;-67
2023/02/22 05:14:15;;;;;;;86.05;25.58;;;;;;;;;;5053144;28;20450;-67
2023/02/22 05:16:44;;;;;;;120.47;27.13;;;;;;;;;;5052808;28;20230;-66
2023/02/22 05:19:12;;;;;;;149.05;27.83;;;;;;;;;;5053243;28;20448;-67
2023/02/22 05:21:40;;;;;;;108.03;29.00;;;;;;;;;;5052885;28;20588;-67
2023/02/22 05:24:07;;;;;;;125.90;29.33;;;;;;;;;;5053039;28;20976;-67
2023/02/22 05:26:34;;;;;;;113.30;26.90;;;;;;;;;;5053303;28;20433;-65
2023/02/22 05:29:01;;;;;;;75.27;24.90;;;;;;;;;;5053069;28;20518;-65
2023/02/22 05:31:29;;;;;;;101.82;25.80;;;;;;;;;;5053181;28;20473;-65
2023/02/22 05:33:58;;;;;;;78.82;24.83;;;;;;;;;;5053327;28;20548;-65
2023/02/22 05:36:26;;;;;;;63.58;23.83;;;;;;;;;;5052772;28;20197;-65
2023/02/22 05:38:54;;;;;;;68.07;25.48;;;;;;;;;;5053340;28;20191;-64
2023/02/22 05:41:21;;;;;;;72.53;27.10;;;;;;;;;;5052702;28;20190;-65
2023/02/22 05:43:48;;;;;;;77.73;24.80;;;;;;;;;;5053131;28;20468;-64
2023/02/22 05:46:15;;;;;;;60.60;25.08;;;;;;;;;;5053691;28;20429;-65
2023/02/22 05:48:42;;;;;;;70.47;24.63;;;;;;;;;;5052961;28;20718;-64
2023/02/22 05:51:11;;;;;;;73.35;24.63;;;;;;;;;;5053227;28;20214;-64
2023/02/22 05:53:38;;;;;;;62.17;24.60;;;;;;;;;;5052647;28;20190;-67
2023/02/22 05:56:06;;;;;;;151.25;31.23;;;;;;;;;;5053058;28;20194;-66
2023/02/22 05:58:33;;;;;;;64.00;24.67;;;;;;;;;;5052879;28;20194;-65
2023/02/22 06:01:00;;;;;;;98.85;26.88;;;;;;;;;;5052849;28;20433;-65
2023/02/22 06:03:27;;;;;;;81.75;23.58;;;;;;;;;;5052977;28;20238;-66
2023/02/22 06:05:54;;;;;;;123.35;26.33;;;;;;;;;;5053298;28;20229;-65
2023/02/22 06:08:23;;;;;;;80.78;24.73;;;;;;;;;;5052960;28;20190;-64
2023/02/22 06:10:50;;;;;;;57.42;20.95;;;;;;;;;;5052540;28;20645;-64
2023/02/22 06:13:17;;;;;;;52.35;21.77;;;;;;;;;;5052600;28;20201;-64
2023/02/22 06:15:44;;;;;;;86.35;25.75;;;;;;;;;;5052629;28;20191;-64
2023/02/22 06:18:12;;;;;;;75.13;22.30;;;;;;;;;;5053747;28;20195;-64
2023/02/22 06:20:40;;;;;;;73.05;22.70;;;;;;;;;;5056747;28;20195;-64
2023/02/22 06:23:07;;;;;;;69.97;23.30;;;;;;;;;;5056351;28;20195;-64
2023/02/22 06:25:35;;;;;;;69.18;23.55;;;;;;;;;;5056688;28;20560;-64
2023/02/22 06:28:03;;;;;;;67.60;23.10;;;;;;;;;;5056211;28;20212;-64
2023/02/22 06:30:31;;;;;;;59.22;23.10;;;;;;;;;;5056282;28;20190;-64
2023/02/22 06:32:58;;;;;;;45.00;21.38;;;;;;;;;;5056256;28;20558;-64
2023/02/22 06:35:25;;;;;;;34.85;19.50;;;;;;;;;;5056761;28;20213;-64
2023/02/22 06:37:52;;;;;;;45.30;19.90;;;;;;;;;;5056095;28;20639;-64
2023/02/22 06:40:19;;;;;;;44.38;20.77;;;;;;;;;;5056357;28;20546;-64
2023/02/22 06:42:49;;;;;;;62.55;21.42;;;;;;;;;;5056257;28;20191;-64
2023/02/22 06:45:17;;;;;;;67.05;21.00;;;;;;;;;;5056337;28;20201;-64
2023/02/22 06:47:44;;;;;;;72.88;22.20;;;;;;;;;;5055919;28;20206;-64
2023/02/22 06:50:18;;;;;;;41.90;20.58;;;;;;;;;;5056235;28;20260;-64
2023/02/22 06:52:46;;;;;;;61.47;21.17;;;;;;;;;;5056124;28;20209;-64
2023/02/22 06:55:17;;;;;;;84.25;38.45;;;;;;;;;;5056106;28;20289;-64
2023/02/22 06:57:44;;;;;;;56.42;27.98;;;;;;;;;;5055968;28;20193;-64
2023/02/22 07:00:13;;;;;;;73.00;24.60;;;;;;;;;;5055665;28;20190;-64
2023/02/22 07:02:40;;;;;;;48.75;20.77;;;;;;;;;;5055565;28;20199;-64
2023/02/22 07:05:08;;;;;;;82.13;24.87;;;;;;;;;;5055897;28;20238;-64
2023/02/22 07:07:35;;;;;;;136.48;25.90;;;;;;;;;;5055487;28;20451;-64
2023/02/22 07:10:02;;;;;;;53.60;21.83;;;;;;;;;;5055554;28;20697;-64
2023/02/22 07:12:29;;;;;;;53.70;23.13;;;;;;;;;;5056447;28;20550;-64
2023/02/22 07:14:56;;;;;;;68.50;21.52;;;;;;;;;;5055461;28;20448;-64
2023/02/22 07:17:25;;;;;;;54.42;21.52;;;;;;;;;;5055335;28;20584;-64
2023/02/22 07:19:52;;;;;;;40.80;19.08;;;;;;;;;;5055789;28;20224;-64
2023/02/22 07:22:19;;;;;;;32.92;20.15;;;;;;;;;;5055687;28;20191;-66
2023/02/22 07:24:46;;;;;;;40.78;18.85;;;;;;;;;;5055508;28;20286;-64
2023/02/22 07:27:13;;;;;;;54.80;20.07;;;;;;;;;;5055150;28;20710;-64
2023/02/22 07:29:42;;;;;;;39.83;19.60;;;;;;;;;;5054722;28;20433;-64
2023/02/22 07:32:10;;;;;;;41.50;19.92;;;;;;;;;;5055300;28;20211;-64
2023/02/22 07:34:38;;;;;;;40.40;20.83;;;;;;;;;;5055684;28;20197;-64
2023/02/22 07:37:05;;;;;;;40.90;19.08;;;;;;;;;;5055037;28;20444;-66
2023/02/22 07:39:33;;;;;;;43.57;20.50;;;;;;;;;;5054932;28;20198;-64
2023/02/22 07:42:00;;;;;;;37.23;19.43;;;;;;;;;;5054883;28;20487;-64
2023/02/22 07:44:27;;;;;;;29.50;16.80;;;;;;;;;;5054835;28;20441;-65
2023/02/22 07:46:54;;;;;;;37.05;18.20;;;;;;;;;;5055368;28;20282;-64
2023/02/22 07:49:22;;;;;;;36.80;17.90;;;;;;;;;;5054731;28;20283;-64
2023/02/22 07:51:50;;;;;;;32.97;16.10;;;;;;;;;;5055226;28;20221;-64
2023/02/22 07:54:17;;;;;;;28.02;15.65;;;;;;;;;;5054717;28;20465;-64
2023/02/22 07:56:45;;;;;;;24.25;16.73;;;;;;;;;;5054923;28;20199;-64
2023/02/22 07:59:12;;;;;;;25.42;16.63;;;;;;;;;;5054872;28;20190;-64
2023/02/22 08:01:39;;;;;;;29.60;17.33;;;;;;;;;;5054614;28;20195;-65
2023/02/22 08:04:07;;;;;;;34.38;16.30;;;;;;;;;;5054508;28;20544;-64
2023/02/22 08:06:34;;;;;;;39.43;16.50;;;;;;;;;;5055213;28;20540;-64
2023/02/22 08:09:02;;;;;;;25.48;16.30;;;;;;;;;;5054695;28;20442;-64
2023/02/22 08:11:29;;;;;;;29.48;17.58;;;;;;;;;;5054660;28;20186;-64
2023/02/22 08:13:57;;;;;;;25.02;15.35;;;;;;;;;;5054502;28;20191;-64
2023/02/22 08:16:24;;;;;;;23.10;15.77;;;;;;;;;;5054529;28;20199;-66
2023/02/22 08:18:51;;;;;;;25.33;14.40;;;;;;;;;;5054050;28;20195;-64
2023/02/22 08:21:18;;;;;;;24.55;15.93;;;;;;;;;;5054064;28;20191;-64
2023/02/22 08:23:45;;;;;;;21.20;14.55;;;;;;;;;;5054109;28;20192;-64
2023/02/22 08:26:17;;;;;;;23.80;15.23;;;;;;;;;;5053936;28;20191;-64
2023/02/22 08:28:44;;;;;;;25.73;15.03;;;;;;;;;;5054307;28;20521;-64
2023/02/22 08:31:11;;;;;;;23.07;14.93;;;;;;;;;;5054259;28;20436;-64
2023/02/22 08:33:38;;;;;;;23.10;14.90;;;;;;;;;;5053853;28;20491;-64
2023/02/22 08:36:06;;;;;;;18.27;13.40;;;;;;;;;;5053909;28;20444;-64
2023/02/22 08:38:33;;;;;;;21.53;15.97;;;;;;;;;;5054564;28;20204;-64
2023/02/22 08:41:01;;;;;;;24.00;14.43;;;;;;;;;;5053964;28;20742;-64
2023/02/22 08:43:29;;;;;;;22.75;16.13;;;;;;;;;;5053945;28;20448;-64
2023/02/22 08:45:56;;;;;;;21.10;14.30;;;;;;;;;;5053760;28;20195;-64
2023/02/22 08:48:24;;;;;;;19.75;14.52;;;;;;;;;;5053997;28;20190;-64
2023/02/22 08:50:51;;;;;;;19.33;13.88;;;;;;;;;;5053612;28;20198;-64
2023/02/22 08:53:18;;;;;;;19.03;13.53;;;;;;;;;;5054419;28;20544;-64
2023/02/22 08:55:46;;;;;;;15.87;12.60;;;;;;;;;;5053810;28;20822;-64
2023/02/22 08:58:13;;;;;;;20.03;13.43;;;;;;;;;;5053809;28;20429;-64
2023/02/22 09:00:43;;;;;;;17.37;14.00;;;;;;;;;;5053002;28;20907;-64
2023/02/22 09:03:12;;;;;;;19.53;13.57;;;;;;;;;;5053536;28;20772;-64
2023/02/22 09:05:39;;;;;;;18.90;12.80;;;;;;;;;;5053568;28;21053;-64
2023/02/22 09:08:06;;;;;;;15.37;11.17;;;;;;;;;;5053971;28;20427;-64
2023/02/22 09:10:34;;;;;;;19.47;13.60;;;;;;;;;;5053205;28;20448;-64
2023/02/22 09:13:02;;;;;;;15.77;11.52;;;;;;;;;;5053561;28;20469;-64
2023/02/22 09:15:30;;;;;;;19.00;13.47;;;;;;;;;;5053505;28;20227;-64
2023/02/22 09:17:59;;;;;;;14.50;11.00;;;;;;;;;;5053523;28;20440;-64
2023/02/22 09:20:26;;;;;;;14.83;11.70;;;;;;;;;;5053432;28;20433;-64
2023/02/22 09:22:54;;;;;;;18.20;11.80;;;;;;;;;;5053520;28;20536;-64
2023/02/22 09:25:21;;;;;;;16.57;12.40;;;;;;;;;;5053725;28;20433;-64
2023/02/22 09:27:49;;;;;;;21.50;13.13;;;;;;;;;;5053734;28;20441;-64
2023/02/22 09:30:18;;;;;;;17.60;13.63;;;;;;;;;;5053250;28;20988;-64
2023/02/22 09:32:45;;;;;;;18.10;12.67;;;;;;;;;;5053946;28;20476;-64
2023/02/22 09:35:14;;;;;;;15.00;12.43;;;;;;;;;;5054011;28;20453;-64
2023/02/22 09:37:43;;;;;;;17.43;12.03;;;;;;;;;;5053354;28;20433;-64
2023/02/22 09:40:16;;;;;;;21.43;12.70;;;;;;;;;;5053219;28;20441;-64
2023/02/22 09:42:48;;;;;;;18.90;14.43;;;;;;;;;;5053107;28;20519;-64
2023/02/22 09:45:19;;;;;;;23.13;12.30;;;;;;;;;;5053346;28;20419;-64
2023/02/22 09:47:49;;;;;;;18.03;13.50;;;;;;;;;;5053466;28;20428;-66
2023/02/22 09:50:22;;;;;;;15.40;11.97;;;;;;;;;;5053635;28;20427;-64
2023/02/22 09:52:54;;;;;;;16.50;11.83;;;;;;;;;;5053402;28;20812;-65
2023/02/22 09:55:27;;;;;;;21.00;13.20;;;;;;;;;;5057618;28;20424;-64
2023/02/22 09:57:57;;;;;;;19.10;13.00;;;;;;;;;;5057463;28;20425;-65
2023/02/22 10:00:28;;;;;;;17.67;13.47;;;;;;;;;;5056851;28;20445;-65
2023/02/22 10:03:01;;;;;;;17.30;12.77;;;;;;;;;;5057173;28;20423;-65
2023/02/22 10:05:32;;;;;;;16.90;12.57;;;;;;;;;;5057090;28;20469;-65
2023/02/22 10:08:04;;;;;;;16.93;13.10;;;;;;;;;;5057460;28;20473;-64
2023/02/22 10:10:33;;;;;;;18.70;12.23;;;;;;;;;;5057071;28;20513;-65
2023/02/22 10:13:01;;;;;;;23.23;12.97;;;;;;;;;;5057335;28;20479;-65
2023/02/22 10:15:34;;;;;;;16.30;12.03;;;;;;;;;;5056803;28;20864;-65
2023/02/22 10:18:05;;;;;;;20.90;12.83;;;;;;;;;;5057460;28;20434;-65
2023/02/22 10:20:43;;;;;;;18.73;12.50;;;;;;;;;;5057063;28;20433;-65
2023/02/22 10:23:14;;;;;;;18.53;13.37;;;;;;;;;;5057402;28;20434;-65
2023/02/22 10:25:43;;;;;;;18.87;12.23;;;;;;;;;;5056388;28;20426;-65
2023/02/22 10:28:14;;;;;;;21.17;12.60;;;;;;;;;;5056493;28;20438;-65
2023/02/22 10:30:43;;;;;;;21.93;13.00;;;;;;;;;;5056276;28;20431;-65
2023/02/22 10:33:13;;;;;;;19.23;13.40;;;;;;;;;;5056861;28;20837;-65
2023/02/22 10:35:42;;;;;;;20.87;14.07;;;;;;;;;;5056617;28;20415;-65
2023/02/22 10:38:15;;;;;;;14.33;11.83;;;;;;;;;;5056583;28;20456;-65
2023/02/22 10:40:44;;;;;;;18.47;13.27;;;;;;;;;;5056749;28;20516;-65
2023/02/22 10:43:12;;;;;;;17.40;12.57;;;;;;;;;;5056336;28;20449;-65
2023/02/22 10:45:40;;;;;;;20.07;13.63;;;;;;;;;;5056275;28;20438;-65
2023/02/22 10:48:10;;;;;;;15.63;12.30;;;;;;;;;;5056473;28;20521;-65
2023/02/22 10:50:39;;;;;;;15.83;12.37;;;;;;;;;;5056137;28;20440;-65
2023/02/22 10:53:08;;;;;;;16.93;13.53;;;;;;;;;;5056174;28;20474;-65
2023/02/22 10:55:36;;;;;;;22.23;14.03;;;;;;;;;;5056082;28;20548;-65
2023/02/22 10:58:05;;;;;;;20.70;15.03;;;;;;;;;;5056279;28;20431;-66
2023/02/22 11:00:36;;;;;;;17.70;13.83;;;;;;;;;;5056021;28;20519;-65
2023/02/22 11:03:05;;;;;;;19.63;13.73;;;;;;;;;;5055894;28;20745;-65
2023/02/22 11:05:35;;;;;;;16.87;12.90;;;;;;;;;;5054414;28;20493;-65
2023/02/22 11:08:19;;;;;;;18.90;13.30;;;;;;;;;;5055671;28;20423;-65
2023/02/22 11:10:47;;;;;;;20.73;14.53;;;;;;;;;;5055811;28;20440;-65
2023/02/22 11:13:18;;;;;;;16.43;12.43;;;;;;;;;;5055420;28;20963;-66
2023/02/22 11:15:45;;;;;;;19.80;13.50;;;;;;;;;;5055835;28;20447;-66
2023/02/22 11:18:23;;;;;;;19.90;13.87;;;;;;;;;;5055727;28;20534;-64
2023/02/22 11:20:50;;;;;;;18.73;13.30;;;;;;;;;;5055817;28;20427;-64
2023/02/22 11:23:23;;;;;;;21.23;14.13;;;;;;;;;;5055267;28;20443;-64
2023/02/22 11:25:51;;;;;;;16.47;13.40;;;;;;;;;;5055219;28;20879;-66
2023/02/22 11:28:29;;;;;;;18.50;13.23;;;;;;;;;;5055150;28;20913;-67
2023/02/22 11:30:58;;;;;;;15.87;12.53;;;;;;;;;;5055431;28;20510;-65
2023/02/22 11:33:28;;;;;;;17.00;13.43;;;;;;;;;;5055349;28;20498;-65
2023/02/22 11:35:55;;;;;;;19.20;14.23;;;;;;;;;;5054913;28;20453;-65
2023/02/22 11:38:25;;;;;;;18.17;13.37;;;;;;;;;;5055586;28;20432;-66
2023/02/22 11:41:13;;;;;;;15.60;12.00;;;;;;;;;;5055091;28;20444;-66
2023/02/22 11:43:41;;;;;;;21.03;14.20;;;;;;;;;;5055308;28;20432;-64
2023/02/22 11:46:12;;;;;;;18.93;13.90;;;;;;;;;;5055189;28;20438;-64
2023/02/22 11:48:43;;;;;;;17.60;12.40;;;;;;;;;;5055483;28;20758;-65
2023/02/22 11:51:15;;;;;;;16.30;12.40;;;;;;;;;;5055128;28;20972;-65
2023/02/22 11:53:50;;;;;;;22.13;11.63;;;;;;;;;;5055177;28;20471;-64
2023/02/22 11:56:22;;;;;;;18.80;13.10;;;;;;;;;;5054597;28;20480;-65
2023/02/22 11:58:53;;;;;;;17.37;11.73;;;;;;;;;;5054954;28;20436;-64
2023/02/22 12:01:27;;;;;;;14.40;12.67;;;;;;;;;;5055236;28;20421;-64
2023/02/22 12:04:14;;;;;;;16.87;12.17;;;;;;;;;;5054938;28;20441;-65
2023/02/22 12:06:46;;;;;;;15.40;10.57;;;;;;;;;;5055377;28;20754;-65
2023/02/22 12:09:20;;;;;;;21.37;12.30;;;;;;;;;;5055583;28;20429;-65
2023/02/22 12:11:57;;;;;;;18.67;11.40;;;;;;;;;;5054315;28;20907;-65
2023/02/22 12:14:26;;;;;;;14.67;11.20;;;;;;;;;;5054761;28;20799;-65
2023/02/22 12:17:03;;;;;;;15.93;10.80;;;;;;;;;;5054373;28;20440;-65
2023/02/22 12:19:34;;;;;;;12.90;10.40;;;;;;;;;;5054854;28;20745;-65
2023/02/22 12:22:06;;;;;;;13.87;11.07;;;;;;;;;;5054470;28;20815;-65
2023/02/22 12:24:37;;;;;;;17.37;11.57;;;;;;;;;;5054738;28;20456;-65
2023/02/22 12:27:08;;;;;;;14.80;11.83;;;;;;;;;;5054490;28;20514;-65
2023/02/22 12:29:39;;;;;;;14.27;11.30;;;;;;;;;;5054306;28;20420;-65
2023/02/22 12:32:09;;;;;;;14.90;11.93;;;;;;;;;;5053902;28;20464;-65
2023/02/22 12:34:40;;;;;;;14.83;11.57;;;;;;;;;;5053965;28;20486;-65
2023/02/22 12:37:12;;;;;;;14.23;11.37;;;;;;;;;;5053781;28;20442;-65
2023/02/22 12:39:49;;;;;;;12.03;10.73;;;;;;;;;;5054768;28;20432;-65
2023/02/22 12:42:18;;;;;;;15.17;10.43;;;;;;;;;;5054167;28;20424;-65
2023/02/22 12:44:48;;;;;;;13.17;11.00;;;;;;;;;;5053939;28;20440;-65
2023/02/22 12:47:17;;;;;;;15.03;11.37;;;;;;;;;;5054025;28;20426;-65
2023/02/22 12:49:49;;;;;;;15.03;10.87;;;;;;;;;;5053704;28;20436;-65
2023/02/22 12:52:20;;;;;;;13.03;11.20;;;;;;;;;;5054116;28;20425;-65
2023/02/22 12:54:55;;;;;;;12.60;10.70;;;;;;;;;;5053568;28;20460;-65
2023/02/22 12:57:27;;;;;;;13.80;11.57;;;;;;;;;;5053688;28;20905;-65
2023/02/22 12:59:56;;;;;;;11.37;10.17;;;;;;;;;;5053511;28;20417;-65
2023/02/22 13:02:32;;;;;;;14.40;12.10;;;;;;;;;;5053377;28;20449;-65
2023/02/22 13:05:00;;;;;;;15.30;10.77;;;;;;;;;;5053230;28;20822;-65
2023/02/22 13:07:35;;;;;;;13.47;9.40;;;;;;;;;;5053654;28;20853;-65
2023/02/22 13:10:22;;;;;;;19.93;10.97;;;;;;;;;;5053724;28;20416;-66
2023/02/22 13:12:52;;;;;;;13.47;10.60;;;;;;;;;;5053869;28;20469;-64
2023/02/22 13:15:22;;;;;;;17.80;11.33;;;;;;;;;;5053322;28;20426;-64
2023/02/22 13:18:01;;;;;;;11.97;10.77;;;;;;;;;;5054029;28;20459;-64
2023/02/22 13:20:29;;;;;;;14.30;11.13;;;;;;;;;;5053773;28;20431;-64
2023/02/22 13:22:59;;;;;;;15.70;10.97;;;;;;;;;;5053090;28;20967;-64
2023/02/22 13:25:31;;;;;;;14.40;9.40;;;;;;;;;;5053401;28;20425;-64
2023/02/22 13:28:00;;;;;;;11.53;8.83;;;;;;;;;;5052316;28;20440;-64
2023/02/22 13:30:34;;;;;;;12.90;9.50;;;;;;;;;;5053552;28;20443;-64
2023/02/22 13:33:08;;;;;;;12.23;10.40;;;;;;;;;;5053695;28;20425;-64
2023/02/22 13:35:56;;;;;;;15.57;10.20;;;;;;;;;;5053125;28;20417;-64
2023/02/22 13:38:40;;;;;;;16.87;12.60;;;;;;;;;;5045867;28;20922;-64
2023/02/22 13:41:12;;;;;;;15.33;12.17;;;;;;;;;;5053710;28;20764;-64
2023/02/22 13:43:52;;;;;;;12.33;9.60;;;;;;;;;;5053241;28;20437;-65
2023/02/22 13:46:26;;;;;;;13.10;9.60;;;;;;;;;;5053864;28;20427;-64
2023/02/22 13:49:14;;;;;;;15.33;10.10;;;;;;;;;;5053265;28;20428;-65
2023/02/22 13:51:47;;;;;;;13.20;10.20;;;;;;;;;;5045498;28;20453;-64
2023/02/22 13:54:18;;;;;;;12.03;10.43;;;;;;;;;;5053177;28;20465;-66
2023/02/22 13:56:48;;;;;;;15.03;12.13;;;;;;;;;;5053612;28;20433;-65
2023/02/22 13:59:23;;;;;;;13.60;10.50;;;;;;;;;;5052983;28;20874;-65
2023/02/22 14:01:53;;;;;;;15.93;10.30;;;;;;;;;;5053088;28;20436;-67
2023/02/22 14:04:35;;;;;;;16.70;10.30;;;;;;;;;;5053201;28;20832;-66
2023/02/22 14:07:03;;;;;;;16.50;10.27;;;;;;;;;;5053054;28;20459;-65
2023/02/22 14:09:44;;;;;;;13.90;9.93;;;;;;;;;;5058228;28;20520;-66
2023/02/22 14:12:32;;;;;;;12.67;10.57;;;;;;;;;;5052234;28;20424;-65
2023/02/22 14:15:14;;;;;;;16.70;10.37;;;;;;;;;;5051872;28;20989;-65
2023/02/22 14:17:41;;;;;;;14.43;10.63;;;;;;;;;;5052253;28;20423;-65
2023/02/22 14:20:28;;;;;;;18.57;11.23;;;;;;;;;;5052151;28;20762;-65
2023/02/22 14:22:56;;;;;;;13.40;10.30;;;;;;;;;;5052363;28;20435;-65
2023/02/22 14:25:35;;;;;;;16.60;11.67;;;;;;;;;;5052399;28;20440;-66
2023/02/22 14:28:04;;;;;;;13.57;10.83;;;;;;;;;;5052146;28;20432;-66